sensor_id;sensor_type;location;lat;lon;timestamp;temperature;humidity
67005;HTU21D;53920;51.094;5.902;2023-04-30T00:01:19;10.23;72.72
67005;HTU21D;53920;51.094;5.902;2023-04-30T00:03:45;10.19;72.78
67005;HTU21D;53920;51.094;5.902;2023-04-30T00:06:11;10.15;72.93
67005;HTU21D;53920;51.094;5.902;2023-04-30T00:08:37;10.10;72.87
67005;HTU21D;53920;51.094;5.902;2023-04-30T00:11:03;10.07;72.77
67005;HTU21D;53920;51.094;5.902;2023-04-30T00:13:29;10.01;72.80
67005;HTU21D;53920;51.094;5.902;2023-04-30T00:15:55;9.97;72.99
67005;HTU21D;53920;51.094;5.902;2023-04-30T00:18:21;9.95;73.16
67005;HTU21D;53920;51.094;5.902;2023-04-30T00:20:47;9.92;73.20
67005;HTU21D;53920;51.094;5.902;2023-04-30T00:23:13;9.91;73.17
67005;HTU21D;53920;51.094;5.902;2023-04-30T00:25:39;9.84;73.21
67005;HTU21D;53920;51.094;5.902;2023-04-30T00:28:04;9.81;73.26
67005;HTU21D;53920;51.094;5.902;2023-04-30T00:30:32;9.78;73.15
67005;HTU21D;53920;51.094;5.902;2023-04-30T00:32:58;9.72;73.15
67005;HTU21D;53920;51.094;5.902;2023-04-30T00:35:24;9.68;73.43
67005;HTU21D;53920;51.094;5.902;2023-04-30T00:37:50;9.64;73.57
67005;HTU21D;53920;51.094;5.902;2023-04-30T00:40:16;9.62;73.78
67005;HTU21D;53920;51.094;5.902;2023-04-30T00:42:42;9.57;73.74
67005;HTU21D;53920;51.094;5.902;2023-04-30T00:45:09;9.54;73.72
67005;HTU21D;53920;51.094;5.902;2023-04-30T00:47:35;9.51;73.86
67005;HTU21D;53920;51.094;5.902;2023-04-30T00:50:01;9.45;73.85
67005;HTU21D;53920;51.094;5.902;2023-04-30T00:52:28;9.39;73.88
67005;HTU21D;53920;51.094;5.902;2023-04-30T00:54:55;9.36;74.03
67005;HTU21D;53920;51.094;5.902;2023-04-30T00:57:21;9.32;74.06
67005;HTU21D;53920;51.094;5.902;2023-04-30T00:59:48;9.26;74.30
67005;HTU21D;53920;51.094;5.902;2023-04-30T01:02:14;9.23;74.42
67005;HTU21D;53920;51.094;5.902;2023-04-30T01:04:40;9.17;74.56
67005;HTU21D;53920;51.094;5.902;2023-04-30T01:07:06;9.12;74.57
67005;HTU21D;53920;51.094;5.902;2023-04-30T01:09:32;9.06;74.62
67005;HTU21D;53920;51.094;5.902;2023-04-30T01:17:20;8.95;75.33
67005;HTU21D;53920;51.094;5.902;2023-04-30T01:19:48;8.93;75.57
67005;HTU21D;53920;51.094;5.902;2023-04-30T01:22:31;8.94;75.76
67005;HTU21D;53920;51.094;5.902;2023-04-30T01:28:05;8.90;75.79
67005;HTU21D;53920;51.094;5.902;2023-04-30T01:30:34;8.89;75.76
67005;HTU21D;53920;51.094;5.902;2023-04-30T01:33:01;8.87;75.83
67005;HTU21D;53920;51.094;5.902;2023-04-30T01:47:05;8.74;76.11
67005;HTU21D;53920;51.094;5.902;2023-04-30T01:52:41;8.67;76.10
67005;HTU21D;53920;51.094;5.902;2023-04-30T01:57:59;8.59;76.11
67005;HTU21D;53920;51.094;5.902;2023-04-30T02:00:28;8.56;76.07
67005;HTU21D;53920;51.094;5.902;2023-04-30T02:02:58;8.53;76.07
67005;HTU21D;53920;51.094;5.902;2023-04-30T02:05:24;8.49;76.05
67005;HTU21D;53920;51.094;5.902;2023-04-30T02:07:51;8.43;75.92
67005;HTU21D;53920;51.094;5.902;2023-04-30T02:10:19;8.39;75.85
67005;HTU21D;53920;51.094;5.902;2023-04-30T02:12:45;8.33;75.99
67005;HTU21D;53920;51.094;5.902;2023-04-30T02:15:11;8.30;76.12
67005;HTU21D;53920;51.094;5.902;2023-04-30T02:17:40;8.23;76.18
67005;HTU21D;53920;51.094;5.902;2023-04-30T02:20:07;8.20;76.34
67005;HTU21D;53920;51.094;5.902;2023-04-30T02:22:33;8.18;76.57
67005;HTU21D;53920;51.094;5.902;2023-04-30T02:24:59;8.18;76.79
67005;HTU21D;53920;51.094;5.902;2023-04-30T02:27:25;8.15;76.92
67005;HTU21D;53920;51.094;5.902;2023-04-30T02:29:52;8.13;76.82
67005;HTU21D;53920;51.094;5.902;2023-04-30T02:32:18;8.11;76.79
67005;HTU21D;53920;51.094;5.902;2023-04-30T02:34:44;8.07;76.81
67005;HTU21D;53920;51.094;5.902;2023-04-30T02:37:10;8.03;76.87
67005;HTU21D;53920;51.094;5.902;2023-04-30T02:39:37;8.01;77.06
67005;HTU21D;53920;51.094;5.902;2023-04-30T02:42:03;7.99;77.14
67005;HTU21D;53920;51.094;5.902;2023-04-30T02:44:31;7.96;77.24
67005;HTU21D;53920;51.094;5.902;2023-04-30T02:46:57;7.91;77.16
67005;HTU21D;53920;51.094;5.902;2023-04-30T02:49:23;7.87;76.95
67005;HTU21D;53920;51.094;5.902;2023-04-30T02:51:49;7.86;77.02
67005;HTU21D;53920;51.094;5.902;2023-04-30T02:54:15;7.81;76.97
67005;HTU21D;53920;51.094;5.902;2023-04-30T02:56:41;7.88;76.77
67005;HTU21D;53920;51.094;5.902;2023-04-30T02:59:09;7.74;76.95
67005;HTU21D;53920;51.094;5.902;2023-04-30T03:01:35;7.71;76.96
67005;HTU21D;53920;51.094;5.902;2023-04-30T03:04:01;7.65;76.95
67005;HTU21D;53920;51.094;5.902;2023-04-30T03:06:31;7.61;76.82
67005;HTU21D;53920;51.094;5.902;2023-04-30T03:08:58;7.56;76.65
67005;HTU21D;53920;51.094;5.902;2023-04-30T03:11:24;7.53;76.84
67005;HTU21D;53920;51.094;5.902;2023-04-30T03:13:50;7.49;77.02
67005;HTU21D;53920;51.094;5.902;2023-04-30T03:16:18;7.44;77.18
67005;HTU21D;53920;51.094;5.902;2023-04-30T03:18:45;7.42;77.25
67005;HTU21D;53920;51.094;5.902;2023-04-30T03:21:11;7.37;76.95
67005;HTU21D;53920;51.094;5.902;2023-04-30T03:23:37;7.31;77.06
67005;HTU21D;53920;51.094;5.902;2023-04-30T03:26:04;7.28;77.24
67005;HTU21D;53920;51.094;5.902;2023-04-30T03:28:30;7.25;77.37
67005;HTU21D;53920;51.094;5.902;2023-04-30T03:30:56;7.24;77.50
67005;HTU21D;53920;51.094;5.902;2023-04-30T03:33:24;7.20;77.28
67005;HTU21D;53920;51.094;5.902;2023-04-30T03:35:50;7.17;77.06
67005;HTU21D;53920;51.094;5.902;2023-04-30T03:38:16;7.13;77.09
67005;HTU21D;53920;51.094;5.902;2023-04-30T03:40:42;7.09;77.09
67005;HTU21D;53920;51.094;5.902;2023-04-30T03:43:08;7.04;77.20
67005;HTU21D;53920;51.094;5.902;2023-04-30T03:45:34;7.01;77.28
67005;HTU21D;53920;51.094;5.902;2023-04-30T03:48:00;6.99;77.24
67005;HTU21D;53920;51.094;5.902;2023-04-30T03:50:26;6.96;77.24
67005;HTU21D;53920;51.094;5.902;2023-04-30T03:52:52;6.94;77.20
67005;HTU21D;53920;51.094;5.902;2023-04-30T03:55:18;6.90;77.27
67005;HTU21D;53920;51.094;5.902;2023-04-30T03:57:44;6.90;77.34
67005;HTU21D;53920;51.094;5.902;2023-04-30T04:00:11;6.88;77.37
67005;HTU21D;53920;51.094;5.902;2023-04-30T04:02:44;6.88;77.41
67005;HTU21D;53920;51.094;5.902;2023-04-30T04:05:10;6.87;77.41
67005;HTU21D;53920;51.094;5.902;2023-04-30T04:07:37;6.86;77.50
67005;HTU21D;53920;51.094;5.902;2023-04-30T04:10:03;6.85;77.27
67005;HTU21D;53920;51.094;5.902;2023-04-30T04:12:31;6.83;77.21
67005;HTU21D;53920;51.094;5.902;2023-04-30T04:14:56;6.81;77.12
67005;HTU21D;53920;51.094;5.902;2023-04-30T04:17:23;6.81;77.14
67005;HTU21D;53920;51.094;5.902;2023-04-30T04:19:49;6.79;77.25
67005;HTU21D;53920;51.094;5.902;2023-04-30T04:22:16;6.80;77.32
67005;HTU21D;53920;51.094;5.902;2023-04-30T04:24:43;6.79;77.27
67005;HTU21D;53920;51.094;5.902;2023-04-30T04:27:12;6.79;77.05
67005;HTU21D;53920;51.094;5.902;2023-04-30T04:29:37;6.78;76.83
67005;HTU21D;53920;51.094;5.902;2023-04-30T04:32:04;6.75;77.08
67005;HTU21D;53920;51.094;5.902;2023-04-30T04:34:32;6.76;77.27
67005;HTU21D;53920;51.094;5.902;2023-04-30T04:36:58;6.80;77.51
67005;HTU21D;53920;51.094;5.902;2023-04-30T04:39:24;6.83;77.57
67005;HTU21D;53920;51.094;5.902;2023-04-30T04:41:50;6.84;77.66
67005;HTU21D;53920;51.094;5.902;2023-04-30T04:44:16;6.88;77.82
67005;HTU21D;53920;51.094;5.902;2023-04-30T04:46:43;6.94;77.74
67005;HTU21D;53920;51.094;5.902;2023-04-30T04:49:10;6.98;77.48
67005;HTU21D;53920;51.094;5.902;2023-04-30T04:51:37;7.03;77.44
67005;HTU21D;53920;51.094;5.902;2023-04-30T04:54:04;7.13;77.59
67005;HTU21D;53920;51.094;5.902;2023-04-30T04:56:31;7.26;77.58
67005;HTU21D;53920;51.094;5.902;2023-04-30T04:58:57;7.37;76.84
67005;HTU21D;53920;51.094;5.902;2023-04-30T05:01:23;7.43;76.34
67005;HTU21D;53920;51.094;5.902;2023-04-30T05:03:49;7.49;75.97
67005;HTU21D;53920;51.094;5.902;2023-04-30T05:06:18;7.54;75.64
67005;HTU21D;53920;51.094;5.902;2023-04-30T05:08:44;7.56;75.60
67005;HTU21D;53920;51.094;5.902;2023-04-30T05:11:11;7.57;75.63
67005;HTU21D;53920;51.094;5.902;2023-04-30T05:13:37;7.63;75.41
67005;HTU21D;53920;51.094;5.902;2023-04-30T05:16:03;7.70;75.47
67005;HTU21D;53920;51.094;5.902;2023-04-30T05:18:29;7.75;75.45
67005;HTU21D;53920;51.094;5.902;2023-04-30T05:20:55;7.83;75.59
67005;HTU21D;53920;51.094;5.902;2023-04-30T05:23:20;7.90;75.75
67005;HTU21D;53920;51.094;5.902;2023-04-30T05:25:53;8.01;75.85
67005;HTU21D;53920;51.094;5.902;2023-04-30T05:28:19;8.12;76.00
67005;HTU21D;53920;51.094;5.902;2023-04-30T05:30:45;8.23;76.15
67005;HTU21D;53920;51.094;5.902;2023-04-30T05:33:12;8.35;76.29
67005;HTU21D;53920;51.094;5.902;2023-04-30T05:35:37;8.47;76.35
67005;HTU21D;53920;51.094;5.902;2023-04-30T05:38:03;8.59;76.46
67005;HTU21D;53920;51.094;5.902;2023-04-30T05:40:29;8.71;76.47
67005;HTU21D;53920;51.094;5.902;2023-04-30T05:42:55;8.81;76.51
67005;HTU21D;53920;51.094;5.902;2023-04-30T05:45:22;8.94;76.40
67005;HTU21D;53920;51.094;5.902;2023-04-30T05:47:48;9.05;76.33
67005;HTU21D;53920;51.094;5.902;2023-04-30T05:50:14;9.17;76.14
67005;HTU21D;53920;51.094;5.902;2023-04-30T05:52:40;9.26;75.96
67005;HTU21D;53920;51.094;5.902;2023-04-30T05:55:06;9.36;75.81
67005;HTU21D;53920;51.094;5.902;2023-04-30T05:57:32;9.45;75.61
67005;HTU21D;53920;51.094;5.902;2023-04-30T05:59:59;9.55;75.32
67005;HTU21D;53920;51.094;5.902;2023-04-30T06:02:25;9.64;75.21
67005;HTU21D;53920;51.094;5.902;2023-04-30T06:04:52;9.71;75.09
67005;HTU21D;53920;51.094;5.902;2023-04-30T06:07:17;9.82;74.89
67005;HTU21D;53920;51.094;5.902;2023-04-30T06:09:44;9.90;74.77
67005;HTU21D;53920;51.094;5.902;2023-04-30T06:12:10;10.01;74.49
67005;HTU21D;53920;51.094;5.902;2023-04-30T06:14:36;10.09;74.24
67005;HTU21D;53920;51.094;5.902;2023-04-30T06:17:02;10.19;74.08
67005;HTU21D;53920;51.094;5.902;2023-04-30T06:19:28;10.27;73.86
67005;HTU21D;53920;51.094;5.902;2023-04-30T06:21:54;10.39;73.55
67005;HTU21D;53920;51.094;5.902;2023-04-30T06:24:20;10.51;73.26
67005;HTU21D;53920;51.094;5.902;2023-04-30T06:26:46;10.60;72.72
67005;HTU21D;53920;51.094;5.902;2023-04-30T06:29:11;10.68;72.51
67005;HTU21D;53920;51.094;5.902;2023-04-30T06:31:37;10.77;72.36
67005;HTU21D;53920;51.094;5.902;2023-04-30T06:34:03;10.89;72.02
67005;HTU21D;53920;51.094;5.902;2023-04-30T06:36:29;11.03;71.61
67005;HTU21D;53920;51.094;5.902;2023-04-30T06:38:56;11.16;71.19
67005;HTU21D;53920;51.094;5.902;2023-04-30T06:41:21;11.30;70.68
67005;HTU21D;53920;51.094;5.902;2023-04-30T06:43:48;11.48;70.14
67005;HTU21D;53920;51.094;5.902;2023-04-30T06:46:14;11.60;69.61
67005;HTU21D;53920;51.094;5.902;2023-04-30T06:48:39;11.73;69.41
67005;HTU21D;53920;51.094;5.902;2023-04-30T06:51:06;11.90;68.99
67005;HTU21D;53920;51.094;5.902;2023-04-30T06:53:32;12.08;68.47
67005;HTU21D;53920;51.094;5.902;2023-04-30T06:55:58;12.30;67.63
67005;HTU21D;53920;51.094;5.902;2023-04-30T06:58:25;12.66;66.01
67005;HTU21D;53920;51.094;5.902;2023-04-30T07:00:51;14.53;60.09
67005;HTU21D;53920;51.094;5.902;2023-04-30T07:03:17;16.93;52.38
67005;HTU21D;53920;51.094;5.902;2023-04-30T07:05:43;19.00;46.28
67005;HTU21D;53920;51.094;5.902;2023-04-30T07:08:09;20.84;41.74
67005;HTU21D;53920;51.094;5.902;2023-04-30T07:10:35;22.29;38.40
67005;HTU21D;53920;51.094;5.902;2023-04-30T07:13:01;23.65;35.48
67005;HTU21D;53920;51.094;5.902;2023-04-30T07:15:27;24.86;32.89
67005;HTU21D;53920;51.094;5.902;2023-04-30T07:17:54;25.64;30.99
67005;HTU21D;53920;51.094;5.902;2023-04-30T07:20:20;26.04;29.97
67005;HTU21D;53920;51.094;5.902;2023-04-30T07:22:46;26.04;29.99
67005;HTU21D;53920;51.094;5.902;2023-04-30T07:25:12;26.11;29.55
67005;HTU21D;53920;51.094;5.902;2023-04-30T07:27:39;26.64;28.70
67005;HTU21D;53920;51.094;5.902;2023-04-30T07:30:06;26.95;28.14
67005;HTU21D;53920;51.094;5.902;2023-04-30T07:32:34;27.22;27.62
67005;HTU21D;53920;51.094;5.902;2023-04-30T07:35:00;27.45;26.99
67005;HTU21D;53920;51.094;5.902;2023-04-30T07:37:26;27.41;26.82
67005;HTU21D;53920;51.094;5.902;2023-04-30T07:39:52;27.78;26.46
67005;HTU21D;53920;51.094;5.902;2023-04-30T07:42:18;27.68;26.38
67005;HTU21D;53920;51.094;5.902;2023-04-30T07:44:44;27.56;26.73
67005;HTU21D;53920;51.094;5.902;2023-04-30T07:47:09;27.17;27.10
67005;HTU21D;53920;51.094;5.902;2023-04-30T07:49:35;27.34;27.17
67005;HTU21D;53920;51.094;5.902;2023-04-30T07:52:02;27.45;26.94
67005;HTU21D;53920;51.094;5.902;2023-04-30T07:54:28;27.94;26.42
67005;HTU21D;53920;51.094;5.902;2023-04-30T07:56:54;28.69;24.98
67005;HTU21D;53920;51.094;5.902;2023-04-30T07:59:20;28.53;24.94
67005;HTU21D;53920;51.094;5.902;2023-04-30T08:01:46;28.62;25.21
67005;HTU21D;53920;51.094;5.902;2023-04-30T08:04:12;29.42;23.85
67005;HTU21D;53920;51.094;5.902;2023-04-30T08:06:38;29.72;22.98
67005;HTU21D;53920;51.094;5.902;2023-04-30T08:09:03;30.28;22.21
67005;HTU21D;53920;51.094;5.902;2023-04-30T08:11:29;30.48;21.88
67005;HTU21D;53920;51.094;5.902;2023-04-30T08:13:55;30.25;22.23
67005;HTU21D;53920;51.094;5.902;2023-04-30T08:16:21;30.85;21.40
67005;HTU21D;53920;51.094;5.902;2023-04-30T08:18:48;31.37;20.82
67005;HTU21D;53920;51.094;5.902;2023-04-30T08:21:15;31.57;20.50
67005;HTU21D;53920;51.094;5.902;2023-04-30T08:23:42;31.67;19.79
67005;HTU21D;53920;51.094;5.902;2023-04-30T08:26:08;31.54;19.59
67005;HTU21D;53920;51.094;5.902;2023-04-30T08:28:34;32.02;19.10
67005;HTU21D;53920;51.094;5.902;2023-04-30T08:31:00;32.14;18.88
67005;HTU21D;53920;51.094;5.902;2023-04-30T08:33:26;31.42;19.58
67005;HTU21D;53920;51.094;5.902;2023-04-30T08:35:53;31.00;20.27
67005;HTU21D;53920;51.094;5.902;2023-04-30T08:38:19;30.93;20.77
67005;HTU21D;53920;51.094;5.902;2023-04-30T08:40:59;30.71;20.50
67005;HTU21D;53920;51.094;5.902;2023-04-30T08:43:27;31.21;20.08
67005;HTU21D;53920;51.094;5.902;2023-04-30T08:45:53;31.24;19.86
67005;HTU21D;53920;51.094;5.902;2023-04-30T08:48:22;31.63;19.54
67005;HTU21D;53920;51.094;5.902;2023-04-30T08:50:49;31.70;18.83
67005;HTU21D;53920;51.094;5.902;2023-04-30T08:53:16;31.70;18.80
67005;HTU21D;53920;51.094;5.902;2023-04-30T08:55:45;31.83;18.07
67005;HTU21D;53920;51.094;5.902;2023-04-30T08:58:11;31.87;17.79
67005;HTU21D;53920;51.094;5.902;2023-04-30T09:00:38;32.37;17.28
67005;HTU21D;53920;51.094;5.902;2023-04-30T09:03:05;32.38;17.03
67005;HTU21D;53920;51.094;5.902;2023-04-30T09:05:32;32.71;17.05
67005;HTU21D;53920;51.094;5.902;2023-04-30T09:07:58;32.70;16.85
67005;HTU21D;53920;51.094;5.902;2023-04-30T09:10:24;32.79;17.03
67005;HTU21D;53920;51.094;5.902;2023-04-30T09:13:01;32.91;16.45
67005;HTU21D;53920;51.094;5.902;2023-04-30T09:15:29;32.73;17.25
67005;HTU21D;53920;51.094;5.902;2023-04-30T09:18:15;32.59;16.77
67005;HTU21D;53920;51.094;5.902;2023-04-30T09:20:55;32.01;17.51
67005;HTU21D;53920;51.094;5.902;2023-04-30T09:23:22;32.30;17.69
67005;HTU21D;53920;51.094;5.902;2023-04-30T09:25:50;32.78;16.59
67005;HTU21D;53920;51.094;5.902;2023-04-30T09:28:16;33.16;16.14
67005;HTU21D;53920;51.094;5.902;2023-04-30T09:30:42;33.05;16.24
67005;HTU21D;53920;51.094;5.902;2023-04-30T09:33:08;33.01;16.57
67005;HTU21D;53920;51.094;5.902;2023-04-30T09:35:38;33.07;16.49
67005;HTU21D;53920;51.094;5.902;2023-04-30T09:38:04;33.53;15.57
67005;HTU21D;53920;51.094;5.902;2023-04-30T09:40:35;33.90;15.38
67005;HTU21D;53920;51.094;5.902;2023-04-30T09:43:02;34.02;14.74
67005;HTU21D;53920;51.094;5.902;2023-04-30T09:45:42;34.40;14.04
67005;HTU21D;53920;51.094;5.902;2023-04-30T09:48:14;34.35;13.90
67005;HTU21D;53920;51.094;5.902;2023-04-30T09:50:41;34.27;13.97
67005;HTU21D;53920;51.094;5.902;2023-04-30T09:53:08;34.35;13.02
67005;HTU21D;53920;51.094;5.902;2023-04-30T09:55:36;33.77;13.52
67005;HTU21D;53920;51.094;5.902;2023-04-30T09:58:06;33.64;13.61
67005;HTU21D;53920;51.094;5.902;2023-04-30T10:00:33;34.03;13.54
67005;HTU21D;53920;51.094;5.902;2023-04-30T10:03:05;34.66;12.53
67005;HTU21D;53920;51.094;5.902;2023-04-30T10:05:51;34.88;12.02
67005;HTU21D;53920;51.094;5.902;2023-04-30T10:08:27;34.77;12.65
67005;HTU21D;53920;51.094;5.902;2023-04-30T10:11:00;35.24;12.27
67005;HTU21D;53920;51.094;5.902;2023-04-30T10:13:34;35.44;11.62
67005;HTU21D;53920;51.094;5.902;2023-04-30T10:19:02;35.84;11.30
67005;HTU21D;53920;51.094;5.902;2023-04-30T10:21:31;35.45;11.20
67005;HTU21D;53920;51.094;5.902;2023-04-30T10:23:57;35.34;11.88
67005;HTU21D;53920;51.094;5.902;2023-04-30T10:26:23;35.50;12.13
67005;HTU21D;53920;51.094;5.902;2023-04-30T10:28:50;35.84;11.78
67005;HTU21D;53920;51.094;5.902;2023-04-30T10:31:20;35.86;11.78
67005;HTU21D;53920;51.094;5.902;2023-04-30T10:36:49;36.36;10.91
67005;HTU21D;53920;51.094;5.902;2023-04-30T10:39:21;36.10;10.78
67005;HTU21D;53920;51.094;5.902;2023-04-30T10:41:47;35.77;10.89
67005;HTU21D;53920;51.094;5.902;2023-04-30T10:44:14;35.45;11.17
67005;HTU21D;53920;51.094;5.902;2023-04-30T10:46:46;34.71;11.82
67005;HTU21D;53920;51.094;5.902;2023-04-30T10:49:12;34.29;12.54
67005;HTU21D;53920;51.094;5.902;2023-04-30T10:51:47;35.20;11.72
67005;HTU21D;53920;51.094;5.902;2023-04-30T10:54:24;35.45;12.14
67005;HTU21D;53920;51.094;5.902;2023-04-30T10:56:52;34.39;13.09
67005;HTU21D;53920;51.094;5.902;2023-04-30T10:59:18;35.11;12.21
67005;HTU21D;53920;51.094;5.902;2023-04-30T11:01:55;35.51;11.54
67005;HTU21D;53920;51.094;5.902;2023-04-30T11:04:23;35.30;11.76
67005;HTU21D;53920;51.094;5.902;2023-04-30T11:09:45;33.51;14.04
67005;HTU21D;53920;51.094;5.902;2023-04-30T11:12:16;32.68;14.65
67005;HTU21D;53920;51.094;5.902;2023-04-30T11:14:45;30.93;16.82
67005;HTU21D;53920;51.094;5.902;2023-04-30T11:17:20;29.27;19.46
67005;HTU21D;53920;51.094;5.902;2023-04-30T11:19:49;28.11;21.40
67005;HTU21D;53920;51.094;5.902;2023-04-30T11:22:23;27.13;23.01
67005;HTU21D;53920;51.094;5.902;2023-04-30T11:27:29;25.67;24.61
67005;HTU21D;53920;51.094;5.902;2023-04-30T11:29:57;25.82;24.56
67005;HTU21D;53920;51.094;5.902;2023-04-30T11:32:37;27.13;22.76
67005;HTU21D;53920;51.094;5.902;2023-04-30T11:35:04;28.24;21.82
67005;HTU21D;53920;51.094;5.902;2023-04-30T11:37:36;29.64;18.81
67005;HTU21D;53920;51.094;5.902;2023-04-30T11:40:11;29.59;18.79
67005;HTU21D;53920;51.094;5.902;2023-04-30T11:42:40;29.93;18.42
67005;HTU21D;53920;51.094;5.902;2023-04-30T11:45:08;31.54;16.69
67005;HTU21D;53920;51.094;5.902;2023-04-30T11:47:52;32.63;15.47
67005;HTU21D;53920;51.094;5.902;2023-04-30T11:50:23;33.94;14.02
67005;HTU21D;53920;51.094;5.902;2023-04-30T11:52:55;34.51;13.04
67005;HTU21D;53920;51.094;5.902;2023-04-30T11:55:24;34.27;12.96
67005;HTU21D;53920;51.094;5.902;2023-04-30T11:57:54;34.85;13.11
67005;HTU21D;53920;51.094;5.902;2023-04-30T12:00:25;35.49;12.30
67005;HTU21D;53920;51.094;5.902;2023-04-30T12:02:52;35.62;12.01
67005;HTU21D;53920;51.094;5.902;2023-04-30T12:05:21;35.89;12.32
67005;HTU21D;53920;51.094;5.902;2023-04-30T12:07:54;35.64;12.24
67005;HTU21D;53920;51.094;5.902;2023-04-30T12:10:21;34.31;13.23
67005;HTU21D;53920;51.094;5.902;2023-04-30T12:12:49;33.57;14.00
67005;HTU21D;53920;51.094;5.902;2023-04-30T12:15:18;32.58;14.97
67005;HTU21D;53920;51.094;5.902;2023-04-30T12:17:45;32.02;16.60
67005;HTU21D;53920;51.094;5.902;2023-04-30T12:20:14;31.89;15.93
67005;HTU21D;53920;51.094;5.902;2023-04-30T12:22:44;31.40;16.54
67005;HTU21D;53920;51.094;5.902;2023-04-30T12:25:15;31.38;17.25
67005;HTU21D;53920;51.094;5.902;2023-04-30T12:27:47;30.40;17.80
67005;HTU21D;53920;51.094;5.902;2023-04-30T12:30:13;30.42;18.50
67005;HTU21D;53920;51.094;5.902;2023-04-30T12:32:44;31.43;17.22
67005;HTU21D;53920;51.094;5.902;2023-04-30T12:35:16;31.61;16.93
67005;HTU21D;53920;51.094;5.902;2023-04-30T12:37:43;30.54;18.37
67005;HTU21D;53920;51.094;5.902;2023-04-30T12:40:10;30.20;19.35
67005;HTU21D;53920;51.094;5.902;2023-04-30T12:42:37;30.90;19.13
67005;HTU21D;53920;51.094;5.902;2023-04-30T12:45:03;31.70;18.05
67005;HTU21D;53920;51.094;5.902;2023-04-30T12:47:29;32.35;16.74
67005;HTU21D;53920;51.094;5.902;2023-04-30T12:49:55;32.48;16.51
67005;HTU21D;53920;51.094;5.902;2023-04-30T12:52:25;32.04;16.89
67005;HTU21D;53920;51.094;5.902;2023-04-30T12:54:52;32.12;17.47
67005;HTU21D;53920;51.094;5.902;2023-04-30T12:57:19;32.78;17.29
67005;HTU21D;53920;51.094;5.902;2023-04-30T13:02:17;32.32;16.59
67005;HTU21D;53920;51.094;5.902;2023-04-30T13:04:43;30.74;18.05
67005;HTU21D;53920;51.094;5.902;2023-04-30T13:07:10;29.41;20.06
67005;HTU21D;53920;51.094;5.902;2023-04-30T13:09:37;28.68;21.14
67005;HTU21D;53920;51.094;5.902;2023-04-30T13:12:03;28.92;21.76
67005;HTU21D;53920;51.094;5.902;2023-04-30T13:14:33;29.78;21.03
67005;HTU21D;53920;51.094;5.902;2023-04-30T13:16:59;30.13;20.19
67005;HTU21D;53920;51.094;5.902;2023-04-30T13:19:27;29.41;20.54
67005;HTU21D;53920;51.094;5.902;2023-04-30T13:21:55;28.56;21.53
67005;HTU21D;53920;51.094;5.902;2023-04-30T13:24:21;27.74;22.19
67005;HTU21D;53920;51.094;5.902;2023-04-30T13:26:47;27.28;24.00
67005;HTU21D;53920;51.094;5.902;2023-04-30T13:29:13;27.56;23.97
67005;HTU21D;53920;51.094;5.902;2023-04-30T13:31:39;28.44;22.44
67005;HTU21D;53920;51.094;5.902;2023-04-30T13:34:08;29.29;20.52
67005;HTU21D;53920;51.094;5.902;2023-04-30T13:36:35;28.91;20.36
67005;HTU21D;53920;51.094;5.902;2023-04-30T13:39:00;28.18;21.53
67005;HTU21D;53920;51.094;5.902;2023-04-30T13:41:26;29.04;20.89
67005;HTU21D;53920;51.094;5.902;2023-04-30T13:43:52;29.85;20.57
67005;HTU21D;53920;51.094;5.902;2023-04-30T13:46:18;30.42;19.51
67005;HTU21D;53920;51.094;5.902;2023-04-30T13:48:45;30.92;18.80
67005;HTU21D;53920;51.094;5.902;2023-04-30T13:51:14;31.22;18.68
67005;HTU21D;53920;51.094;5.902;2023-04-30T13:53:41;31.04;18.34
67005;HTU21D;53920;51.094;5.902;2023-04-30T13:56:07;30.38;19.75
67005;HTU21D;53920;51.094;5.902;2023-04-30T13:58:32;30.74;19.44
67005;HTU21D;53920;51.094;5.902;2023-04-30T14:00:59;30.71;19.44
67005;HTU21D;53920;51.094;5.902;2023-04-30T14:03:24;30.39;19.74
67005;HTU21D;53920;51.094;5.902;2023-04-30T14:05:51;30.64;19.56
67005;HTU21D;53920;51.094;5.902;2023-04-30T14:08:17;30.22;18.99
67005;HTU21D;53920;51.094;5.902;2023-04-30T14:10:43;30.32;19.34
67005;HTU21D;53920;51.094;5.902;2023-04-30T14:13:09;30.47;19.17
67005;HTU21D;53920;51.094;5.902;2023-04-30T14:15:35;30.23;19.77
67005;HTU21D;53920;51.094;5.902;2023-04-30T14:18:00;30.64;19.18
67005;HTU21D;53920;51.094;5.902;2023-04-30T14:20:26;30.13;18.95
67005;HTU21D;53920;51.094;5.902;2023-04-30T14:22:52;29.24;20.79
67005;HTU21D;53920;51.094;5.902;2023-04-30T14:25:18;28.28;21.92
67005;HTU21D;53920;51.094;5.902;2023-04-30T14:27:45;27.64;22.14
67005;HTU21D;53920;51.094;5.902;2023-04-30T14:30:12;27.21;22.24
67005;HTU21D;53920;51.094;5.902;2023-04-30T14:32:37;26.76;23.56
67005;HTU21D;53920;51.094;5.902;2023-04-30T14:35:04;26.57;23.32
67005;HTU21D;53920;51.094;5.902;2023-04-30T14:37:30;26.30;23.95
67005;HTU21D;53920;51.094;5.902;2023-04-30T14:39:56;26.48;23.99
67005;HTU21D;53920;51.094;5.902;2023-04-30T14:42:23;27.01;23.67
67005;HTU21D;53920;51.094;5.902;2023-04-30T14:44:49;27.65;22.83
67005;HTU21D;53920;51.094;5.902;2023-04-30T14:47:15;28.25;22.23
67005;HTU21D;53920;51.094;5.902;2023-04-30T14:49:41;28.03;21.64
67005;HTU21D;53920;51.094;5.902;2023-04-30T14:52:07;27.69;22.62
67005;HTU21D;53920;51.094;5.902;2023-04-30T14:54:33;27.35;22.75
67005;HTU21D;53920;51.094;5.902;2023-04-30T14:56:59;27.11;23.43
67005;HTU21D;53920;51.094;5.902;2023-04-30T14:59:25;26.58;23.81
67005;HTU21D;53920;51.094;5.902;2023-04-30T15:01:51;26.10;24.40
67005;HTU21D;53920;51.094;5.902;2023-04-30T15:04:17;25.90;24.91
67005;HTU21D;53920;51.094;5.902;2023-04-30T15:06:43;25.92;24.31
67005;HTU21D;53920;51.094;5.902;2023-04-30T15:09:09;25.95;24.27
67005;HTU21D;53920;51.094;5.902;2023-04-30T15:11:36;26.09;24.94
67005;HTU21D;53920;51.094;5.902;2023-04-30T15:14:02;25.95;25.49
67005;HTU21D;53920;51.094;5.902;2023-04-30T15:16:29;25.80;26.91
67005;HTU21D;53920;51.094;5.902;2023-04-30T15:18:55;25.56;27.37
67005;HTU21D;53920;51.094;5.902;2023-04-30T15:21:22;25.09;27.15
67005;HTU21D;53920;51.094;5.902;2023-04-30T15:23:48;24.68;27.87
67005;HTU21D;53920;51.094;5.902;2023-04-30T15:26:15;24.41;28.56
67005;HTU21D;53920;51.094;5.902;2023-04-30T15:28:41;24.27;28.05
67005;HTU21D;53920;51.094;5.902;2023-04-30T15:31:07;24.04;28.07
67005;HTU21D;53920;51.094;5.902;2023-04-30T15:33:33;24.01;28.56
67005;HTU21D;53920;51.094;5.902;2023-04-30T15:36:04;23.96;27.51
67005;HTU21D;53920;51.094;5.902;2023-04-30T15:38:30;23.91;28.40
67005;HTU21D;53920;51.094;5.902;2023-04-30T15:40:56;24.08;28.82
67005;HTU21D;53920;51.094;5.902;2023-04-30T15:43:22;24.36;28.76
67005;HTU21D;53920;51.094;5.902;2023-04-30T15:45:48;24.58;28.72
67005;HTU21D;53920;51.094;5.902;2023-04-30T15:48:14;24.69;28.82
67005;HTU21D;53920;51.094;5.902;2023-04-30T15:50:40;24.74;28.50
67005;HTU21D;53920;51.094;5.902;2023-04-30T15:53:05;24.62;28.62
67005;HTU21D;53920;51.094;5.902;2023-04-30T15:55:31;24.36;29.10
67005;HTU21D;53920;51.094;5.902;2023-04-30T15:57:57;24.09;29.68
67005;HTU21D;53920;51.094;5.902;2023-04-30T16:00:23;23.73;30.43
67005;HTU21D;53920;51.094;5.902;2023-04-30T16:02:52;23.40;31.11